Cobham, Virginia
Current Conditions -  °F | °C
As of 5:35 PM on Tuesday 21 Oct 2014 (Local Time) from KGVE Reporting Station
Haze Haze  
Wind Chill: 55°   Ceiling: 6000
Heat Index: 55°   Visibility: 5mi
Dew Point: 50°   Wind: 7mph
Humidity: 86%   Direction: 350°N
Pressure: 29.84"   Gusts: NA
Location:  38.06°N, 78.27°W
Report Text: KGVE 212135Z AUTO 35006KT 5SM HZ SCT019 SCT041 OVC060 13/10 A2984 RMK AO1 T01250102
Loading
Personal Weather Stations






























Interactive Weather Map
Tropical Storm Tracking
New forecast layout! Learn more

10-Day Weather Forecast

Advertisements
Track Severe Weather on mobile